sensor_id;sensor_type;location;lat;lon;timestamp;temperature;humidity
29813;DHT22;16707;48.106;11.548;2022-12-10T00:01:52;2.50;99.90
29813;DHT22;16707;48.106;11.548;2022-12-10T00:04:20;2.40;99.90
29813;DHT22;16707;48.106;11.548;2022-12-10T00:06:48;2.40;99.90
29813;DHT22;16707;48.106;11.548;2022-12-10T00:09:19;2.30;99.90
29813;DHT22;16707;48.106;11.548;2022-12-10T00:11:48;2.30;99.90
29813;DHT22;16707;48.106;11.548;2022-12-10T00:14:15;2.30;99.90
29813;DHT22;16707;48.106;11.548;2022-12-10T00:16:42;2.30;99.90
29813;DHT22;16707;48.106;11.548;2022-12-10T00:19:12;2.40;99.90
29813;DHT22;16707;48.106;11.548;2022-12-10T00:21:43;2.20;99.90
29813;DHT22;16707;48.106;11.548;2022-12-10T00:24:11;2.20;99.90
29813;DHT22;16707;48.106;11.548;2022-12-10T00:26:41;2.20;99.90
29813;DHT22;16707;48.106;11.548;2022-12-10T00:29:12;2.30;99.90
29813;DHT22;16707;48.106;11.548;2022-12-10T00:31:45;2.30;99.90
29813;DHT22;16707;48.106;11.548;2022-12-10T00:34:13;2.30;99.90
29813;DHT22;16707;48.106;11.548;2022-12-10T00:36:42;2.30;99.90
29813;DHT22;16707;48.106;11.548;2022-12-10T00:39:11;2.20;99.90
29813;DHT22;16707;48.106;11.548;2022-12-10T00:41:39;2.30;99.90
29813;DHT22;16707;48.106;11.548;2022-12-10T00:44:06;2.30;99.90
29813;DHT22;16707;48.106;11.548;2022-12-10T00:46:38;2.20;99.90
29813;DHT22;16707;48.106;11.548;2022-12-10T00:49:05;2.30;99.90
29813;DHT22;16707;48.106;11.548;2022-12-10T00:51:32;2.40;99.90
29813;DHT22;16707;48.106;11.548;2022-12-10T00:53:59;2.40;99.90
29813;DHT22;16707;48.106;11.548;2022-12-10T00:56:30;2.30;99.90
29813;DHT22;16707;48.106;11.548;2022-12-10T00:59:04;2.30;99.90
29813;DHT22;16707;48.106;11.548;2022-12-10T01:01:32;2.20;99.90
29813;DHT22;16707;48.106;11.548;2022-12-10T01:04:06;2.20;99.90
29813;DHT22;16707;48.106;11.548;2022-12-10T01:06:40;2.20;99.90
29813;DHT22;16707;48.106;11.548;2022-12-10T01:09:12;2.20;99.90
29813;DHT22;16707;48.106;11.548;2022-12-10T01:11:46;2.20;99.90
29813;DHT22;16707;48.106;11.548;2022-12-10T01:14:15;2.10;99.90
29813;DHT22;16707;48.106;11.548;2022-12-10T01:16:46;2.10;99.90
29813;DHT22;16707;48.106;11.548;2022-12-10T01:19:15;2.10;99.90
29813;DHT22;16707;48.106;11.548;2022-12-10T01:21:42;2.10;99.90
29813;DHT22;16707;48.106;11.548;2022-12-10T01:24:12;2.00;99.90
29813;DHT22;16707;48.106;11.548;2022-12-10T01:26:42;2.10;99.90
29813;DHT22;16707;48.106;11.548;2022-12-10T01:29:11;2.20;99.90
29813;DHT22;16707;48.106;11.548;2022-12-10T01:31:38;2.10;99.90
29813;DHT22;16707;48.106;11.548;2022-12-10T01:34:12;2.10;99.90
29813;DHT22;16707;48.106;11.548;2022-12-10T01:36:42;2.10;99.90
29813;DHT22;16707;48.106;11.548;2022-12-10T01:39:12;2.10;99.90
29813;DHT22;16707;48.106;11.548;2022-12-10T01:41:44;2.20;99.90
29813;DHT22;16707;48.106;11.548;2022-12-10T01:47:14;2.20;99.90
29813;DHT22;16707;48.106;11.548;2022-12-10T01:49:44;2.10;99.90
29813;DHT22;16707;48.106;11.548;2022-12-10T01:52:15;2.00;99.90
29813;DHT22;16707;48.106;11.548;2022-12-10T01:54:48;2.10;99.90
29813;DHT22;16707;48.106;11.548;2022-12-10T01:57:17;2.10;99.90
29813;DHT22;16707;48.106;11.548;2022-12-10T01:59:48;2.10;99.90
29813;DHT22;16707;48.106;11.548;2022-12-10T02:02:26;2.20;99.90
29813;DHT22;16707;48.106;11.548;2022-12-10T02:05:07;2.40;99.90
29813;DHT22;16707;48.106;11.548;2022-12-10T02:07:54;2.50;99.90
29813;DHT22;16707;48.106;11.548;2022-12-10T02:10:39;2.60;99.90
29813;DHT22;16707;48.106;11.548;2022-12-10T02:13:12;2.60;99.90
29813;DHT22;16707;48.106;11.548;2022-12-10T02:15:43;2.50;99.90
29813;DHT22;16707;48.106;11.548;2022-12-10T02:18:19;2.30;99.90
29813;DHT22;16707;48.106;11.548;2022-12-10T02:20:50;2.30;99.90
29813;DHT22;16707;48.106;11.548;2022-12-10T02:23:22;2.30;99.90
29813;DHT22;16707;48.106;11.548;2022-12-10T02:25:56;2.20;99.90
29813;DHT22;16707;48.106;11.548;2022-12-10T02:28:33;2.10;99.90
29813;DHT22;16707;48.106;11.548;2022-12-10T02:31:05;2.20;99.90
29813;DHT22;16707;48.106;11.548;2022-12-10T02:33:35;2.20;99.90
29813;DHT22;16707;48.106;11.548;2022-12-10T02:36:05;2.20;99.90
29813;DHT22;16707;48.106;11.548;2022-12-10T02:38:37;2.40;99.90
29813;DHT22;16707;48.106;11.548;2022-12-10T02:41:10;2.30;99.90
29813;DHT22;16707;48.106;11.548;2022-12-10T02:43:40;2.20;99.90
29813;DHT22;16707;48.106;11.548;2022-12-10T02:46:09;2.20;99.90
29813;DHT22;16707;48.106;11.548;2022-12-10T02:48:37;1.80;99.90
29813;DHT22;16707;48.106;11.548;2022-12-10T02:51:06;1.90;99.90
29813;DHT22;16707;48.106;11.548;2022-12-10T02:53:33;1.90;99.90
29813;DHT22;16707;48.106;11.548;2022-12-10T02:56:10;1.80;99.90
29813;DHT22;16707;48.106;11.548;2022-12-10T02:58:49;1.90;99.90
29813;DHT22;16707;48.106;11.548;2022-12-10T03:01:35;1.90;99.90
29813;DHT22;16707;48.106;11.548;2022-12-10T03:04:11;1.90;99.90
29813;DHT22;16707;48.106;11.548;2022-12-10T03:06:41;1.80;99.90
29813;DHT22;16707;48.106;11.548;2022-12-10T03:09:25;1.80;99.90
29813;DHT22;16707;48.106;11.548;2022-12-10T03:12:01;1.70;99.90
29813;DHT22;16707;48.106;11.548;2022-12-10T03:14:34;1.80;99.90
29813;DHT22;16707;48.106;11.548;2022-12-10T03:17:04;1.80;99.90
29813;DHT22;16707;48.106;11.548;2022-12-10T03:19:38;1.90;99.90
29813;DHT22;16707;48.106;11.548;2022-12-10T03:22:07;1.70;99.90
29813;DHT22;16707;48.106;11.548;2022-12-10T03:24:36;1.70;99.90
29813;DHT22;16707;48.106;11.548;2022-12-10T03:27:04;1.80;99.90
29813;DHT22;16707;48.106;11.548;2022-12-10T03:29:38;1.90;99.90
29813;DHT22;16707;48.106;11.548;2022-12-10T03:32:08;2.00;99.90
29813;DHT22;16707;48.106;11.548;2022-12-10T03:34:36;2.00;99.90
29813;DHT22;16707;48.106;11.548;2022-12-10T03:37:04;1.90;99.90
29813;DHT22;16707;48.106;11.548;2022-12-10T03:39:32;1.90;99.90
29813;DHT22;16707;48.106;11.548;2022-12-10T03:41:59;2.00;99.90
29813;DHT22;16707;48.106;11.548;2022-12-10T03:44:30;2.10;99.90
29813;DHT22;16707;48.106;11.548;2022-12-10T03:46:59;2.20;99.90
29813;DHT22;16707;48.106;11.548;2022-12-10T03:49:31;2.10;99.90
29813;DHT22;16707;48.106;11.548;2022-12-10T03:51:58;2.00;99.90
29813;DHT22;16707;48.106;11.548;2022-12-10T03:54:30;2.20;99.90
29813;DHT22;16707;48.106;11.548;2022-12-10T03:57:00;2.40;99.90
29813;DHT22;16707;48.106;11.548;2022-12-10T03:59:27;2.20;99.90
29813;DHT22;16707;48.106;11.548;2022-12-10T04:01:54;2.10;99.90
29813;DHT22;16707;48.106;11.548;2022-12-10T04:04:24;2.10;99.90
29813;DHT22;16707;48.106;11.548;2022-12-10T04:06:52;2.00;99.90
29813;DHT22;16707;48.106;11.548;2022-12-10T04:09:19;1.90;99.90
29813;DHT22;16707;48.106;11.548;2022-12-10T04:11:55;1.80;99.90
29813;DHT22;16707;48.106;11.548;2022-12-10T04:14:22;1.70;99.90
29813;DHT22;16707;48.106;11.548;2022-12-10T04:17:16;1.80;99.90
29813;DHT22;16707;48.106;11.548;2022-12-10T04:19:46;1.80;99.90
29813;DHT22;16707;48.106;11.548;2022-12-10T04:22:18;1.80;99.90
29813;DHT22;16707;48.106;11.548;2022-12-10T04:25:03;1.90;99.90
29813;DHT22;16707;48.106;11.548;2022-12-10T04:27:47;1.80;99.90
29813;DHT22;16707;48.106;11.548;2022-12-10T04:30:14;1.90;99.90
29813;DHT22;16707;48.106;11.548;2022-12-10T04:32:41;1.70;99.90
29813;DHT22;16707;48.106;11.548;2022-12-10T04:35:14;1.70;99.90
29813;DHT22;16707;48.106;11.548;2022-12-10T04:37:43;1.70;99.90
29813;DHT22;16707;48.106;11.548;2022-12-10T04:40:14;1.70;99.90
29813;DHT22;16707;48.106;11.548;2022-12-10T04:42:44;1.80;99.90
29813;DHT22;16707;48.106;11.548;2022-12-10T04:45:11;1.80;99.90
29813;DHT22;16707;48.106;11.548;2022-12-10T04:47:38;1.80;99.90
29813;DHT22;16707;48.106;11.548;2022-12-10T04:50:06;2.00;99.90
29813;DHT22;16707;48.106;11.548;2022-12-10T04:52:33;2.00;99.90
29813;DHT22;16707;48.106;11.548;2022-12-10T04:55:01;1.90;99.90
29813;DHT22;16707;48.106;11.548;2022-12-10T04:57:33;2.00;99.90
29813;DHT22;16707;48.106;11.548;2022-12-10T05:00:04;2.10;99.90
29813;DHT22;16707;48.106;11.548;2022-12-10T05:02:34;1.90;99.90
29813;DHT22;16707;48.106;11.548;2022-12-10T05:05:07;1.90;99.90
29813;DHT22;16707;48.106;11.548;2022-12-10T05:07:35;1.70;99.90
29813;DHT22;16707;48.106;11.548;2022-12-10T05:10:04;1.70;99.90
29813;DHT22;16707;48.106;11.548;2022-12-10T05:12:34;1.70;99.90
29813;DHT22;16707;48.106;11.548;2022-12-10T05:15:05;1.80;99.90
29813;DHT22;16707;48.106;11.548;2022-12-10T05:17:35;1.70;99.90
29813;DHT22;16707;48.106;11.548;2022-12-10T05:20:06;1.70;99.90
29813;DHT22;16707;48.106;11.548;2022-12-10T05:22:33;1.70;99.90
29813;DHT22;16707;48.106;11.548;2022-12-10T05:25:19;1.70;99.90
29813;DHT22;16707;48.106;11.548;2022-12-10T05:27:46;1.70;99.90
29813;DHT22;16707;48.106;11.548;2022-12-10T05:30:13;1.60;99.90
29813;DHT22;16707;48.106;11.548;2022-12-10T05:32:40;1.70;99.90
29813;DHT22;16707;48.106;11.548;2022-12-10T05:35:08;1.80;99.90
29813;DHT22;16707;48.106;11.548;2022-12-10T05:37:37;1.70;99.90
29813;DHT22;16707;48.106;11.548;2022-12-10T05:40:05;1.70;99.90
29813;DHT22;16707;48.106;11.548;2022-12-10T05:42:36;1.60;99.90
29813;DHT22;16707;48.106;11.548;2022-12-10T05:45:04;1.50;99.90
29813;DHT22;16707;48.106;11.548;2022-12-10T05:47:31;1.60;99.90
29813;DHT22;16707;48.106;11.548;2022-12-10T05:49:58;1.70;99.90
29813;DHT22;16707;48.106;11.548;2022-12-10T05:52:28;1.80;99.90
29813;DHT22;16707;48.106;11.548;2022-12-10T05:54:58;1.70;99.90
29813;DHT22;16707;48.106;11.548;2022-12-10T05:57:25;1.70;99.90
29813;DHT22;16707;48.106;11.548;2022-12-10T05:59:53;1.60;99.90
29813;DHT22;16707;48.106;11.548;2022-12-10T06:02:20;1.50;99.90
29813;DHT22;16707;48.106;11.548;2022-12-10T06:04:47;1.70;99.90
29813;DHT22;16707;48.106;11.548;2022-12-10T06:07:14;1.70;99.90
29813;DHT22;16707;48.106;11.548;2022-12-10T06:09:48;1.70;99.90
29813;DHT22;16707;48.106;11.548;2022-12-10T06:12:15;1.70;99.90
29813;DHT22;16707;48.106;11.548;2022-12-10T06:14:48;1.70;99.90
29813;DHT22;16707;48.106;11.548;2022-12-10T06:17:20;1.80;99.90
29813;DHT22;16707;48.106;11.548;2022-12-10T06:19:47;1.50;99.90
29813;DHT22;16707;48.106;11.548;2022-12-10T06:22:23;1.40;99.90
29813;DHT22;16707;48.106;11.548;2022-12-10T06:24:50;1.40;99.90
29813;DHT22;16707;48.106;11.548;2022-12-10T06:27:17;1.30;99.90
29813;DHT22;16707;48.106;11.548;2022-12-10T06:29:44;1.40;99.90
29813;DHT22;16707;48.106;11.548;2022-12-10T06:32:14;1.40;99.90
29813;DHT22;16707;48.106;11.548;2022-12-10T06:34:45;1.50;99.90
29813;DHT22;16707;48.106;11.548;2022-12-10T06:37:12;1.50;99.90
29813;DHT22;16707;48.106;11.548;2022-12-10T06:39:41;1.50;99.90
29813;DHT22;16707;48.106;11.548;2022-12-10T06:42:10;1.50;99.90
29813;DHT22;16707;48.106;11.548;2022-12-10T06:44:43;1.50;99.90
29813;DHT22;16707;48.106;11.548;2022-12-10T06:47:13;1.40;99.90
29813;DHT22;16707;48.106;11.548;2022-12-10T06:49:44;1.60;99.90
29813;DHT22;16707;48.106;11.548;2022-12-10T06:52:12;1.70;99.90
29813;DHT22;16707;48.106;11.548;2022-12-10T06:54:39;1.80;99.90
29813;DHT22;16707;48.106;11.548;2022-12-10T06:57:06;1.50;99.90
29813;DHT22;16707;48.106;11.548;2022-12-10T06:59:33;1.60;99.90
29813;DHT22;16707;48.106;11.548;2022-12-10T07:02:01;1.60;99.90
29813;DHT22;16707;48.106;11.548;2022-12-10T07:04:32;1.50;99.90
29813;DHT22;16707;48.106;11.548;2022-12-10T07:07:01;1.40;99.90
29813;DHT22;16707;48.106;11.548;2022-12-10T07:09:28;1.40;99.90
29813;DHT22;16707;48.106;11.548;2022-12-10T07:11:57;1.50;99.90
29813;DHT22;16707;48.106;11.548;2022-12-10T07:14:27;1.50;99.90
29813;DHT22;16707;48.106;11.548;2022-12-10T07:16:54;1.40;99.90
29813;DHT22;16707;48.106;11.548;2022-12-10T07:19:21;1.50;99.90
29813;DHT22;16707;48.106;11.548;2022-12-10T07:21:48;1.50;99.90
29813;DHT22;16707;48.106;11.548;2022-12-10T07:24:19;1.40;99.90
29813;DHT22;16707;48.106;11.548;2022-12-10T07:26:46;1.50;99.90
29813;DHT22;16707;48.106;11.548;2022-12-10T07:29:15;1.60;99.90
29813;DHT22;16707;48.106;11.548;2022-12-10T07:31:48;1.70;99.90
29813;DHT22;16707;48.106;11.548;2022-12-10T07:34:22;1.80;99.90
29813;DHT22;16707;48.106;11.548;2022-12-10T07:36:49;1.70;99.90
29813;DHT22;16707;48.106;11.548;2022-12-10T07:39:18;1.80;99.90
29813;DHT22;16707;48.106;11.548;2022-12-10T07:41:47;1.70;99.90
29813;DHT22;16707;48.106;11.548;2022-12-10T07:44:15;1.80;99.90
29813;DHT22;16707;48.106;11.548;2022-12-10T07:46:44;1.80;99.90
29813;DHT22;16707;48.106;11.548;2022-12-10T07:49:11;1.80;99.90
29813;DHT22;16707;48.106;11.548;2022-12-10T07:51:39;1.90;99.90
29813;DHT22;16707;48.106;11.548;2022-12-10T07:54:06;1.80;99.90
29813;DHT22;16707;48.106;11.548;2022-12-10T07:56:34;1.90;99.90
29813;DHT22;16707;48.106;11.548;2022-12-10T07:59:01;2.00;99.90
29813;DHT22;16707;48.106;11.548;2022-12-10T08:01:28;1.80;99.90
29813;DHT22;16707;48.106;11.548;2022-12-10T08:03:56;1.90;99.90
29813;DHT22;16707;48.106;11.548;2022-12-10T08:06:27;1.90;99.90
29813;DHT22;16707;48.106;11.548;2022-12-10T08:08:57;1.80;99.90
29813;DHT22;16707;48.106;11.548;2022-12-10T08:11:24;1.80;99.90
29813;DHT22;16707;48.106;11.548;2022-12-10T08:13:56;1.90;99.90
29813;DHT22;16707;48.106;11.548;2022-12-10T08:16:25;2.10;99.90
29813;DHT22;16707;48.106;11.548;2022-12-10T08:18:53;1.90;99.90
29813;DHT22;16707;48.106;11.548;2022-12-10T08:21:23;2.00;99.90
29813;DHT22;16707;48.106;11.548;2022-12-10T08:23:53;1.70;99.90
29813;DHT22;16707;48.106;11.548;2022-12-10T08:26:26;1.80;99.90
29813;DHT22;16707;48.106;11.548;2022-12-10T08:28:57;1.80;99.90
29813;DHT22;16707;48.106;11.548;2022-12-10T08:31:28;1.80;99.90
29813;DHT22;16707;48.106;11.548;2022-12-10T08:33:55;1.90;99.90
29813;DHT22;16707;48.106;11.548;2022-12-10T08:36:22;2.10;99.90
29813;DHT22;16707;48.106;11.548;2022-12-10T08:38:52;2.20;99.90
29813;DHT22;16707;48.106;11.548;2022-12-10T08:41:31;2.10;99.90
29813;DHT22;16707;48.106;11.548;2022-12-10T08:44:14;2.00;99.90
29813;DHT22;16707;48.106;11.548;2022-12-10T08:46:58;2.20;99.90
29813;DHT22;16707;48.106;11.548;2022-12-10T08:49:25;2.20;99.90
29813;DHT22;16707;48.106;11.548;2022-12-10T08:55:07;2.30;99.90
29813;DHT22;16707;48.106;11.548;2022-12-10T08:57:49;1.90;99.90
29813;DHT22;16707;48.106;11.548;2022-12-10T09:00:31;2.00;99.90
29813;DHT22;16707;48.106;11.548;2022-12-10T09:03:08;1.90;99.90
29813;DHT22;16707;48.106;11.548;2022-12-10T09:05:37;1.70;99.90
29813;DHT22;16707;48.106;11.548;2022-12-10T09:08:04;2.00;99.90
29813;DHT22;16707;48.106;11.548;2022-12-10T09:10:35;1.90;99.90
29813;DHT22;16707;48.106;11.548;2022-12-10T09:13:02;2.10;99.90
29813;DHT22;16707;48.106;11.548;2022-12-10T09:15:30;2.10;99.90
29813;DHT22;16707;48.106;11.548;2022-12-10T09:18:03;2.00;99.90
29813;DHT22;16707;48.106;11.548;2022-12-10T09:20:30;2.10;99.90
29813;DHT22;16707;48.106;11.548;2022-12-10T09:22:57;2.00;99.90
29813;DHT22;16707;48.106;11.548;2022-12-10T09:25:27;2.10;99.90
29813;DHT22;16707;48.106;11.548;2022-12-10T09:27:54;2.20;99.90
29813;DHT22;16707;48.106;11.548;2022-12-10T09:30:21;2.00;99.90
29813;DHT22;16707;48.106;11.548;2022-12-10T09:32:49;2.10;99.90
29813;DHT22;16707;48.106;11.548;2022-12-10T09:35:19;2.20;99.90
29813;DHT22;16707;48.106;11.548;2022-12-10T09:37:52;2.20;99.90
29813;DHT22;16707;48.106;11.548;2022-12-10T09:40:27;2.10;99.90
29813;DHT22;16707;48.106;11.548;2022-12-10T09:43:11;2.20;99.90
29813;DHT22;16707;48.106;11.548;2022-12-10T09:45:44;2.20;99.90
29813;DHT22;16707;48.106;11.548;2022-12-10T09:48:25;2.10;99.90
29813;DHT22;16707;48.106;11.548;2022-12-10T09:51:00;2.10;99.90
29813;DHT22;16707;48.106;11.548;2022-12-10T09:53:47;2.20;99.90
29813;DHT22;16707;48.106;11.548;2022-12-10T09:56:23;2.50;99.90
29813;DHT22;16707;48.106;11.548;2022-12-10T09:58:51;2.30;99.90
29813;DHT22;16707;48.106;11.548;2022-12-10T10:01:24;2.20;99.90
29813;DHT22;16707;48.106;11.548;2022-12-10T10:03:54;2.30;99.90
29813;DHT22;16707;48.106;11.548;2022-12-10T10:06:27;2.10;99.90
29813;DHT22;16707;48.106;11.548;2022-12-10T10:09:12;2.20;99.90
29813;DHT22;16707;48.106;11.548;2022-12-10T10:11:47;2.20;99.90
29813;DHT22;16707;48.106;11.548;2022-12-10T10:14:19;2.20;99.90
29813;DHT22;16707;48.106;11.548;2022-12-10T10:16:53;2.20;99.90
29813;DHT22;16707;48.106;11.548;2022-12-10T10:19:26;2.20;99.90
29813;DHT22;16707;48.106;11.548;2022-12-10T10:21:54;2.10;99.90
29813;DHT22;16707;48.106;11.548;2022-12-10T10:24:23;2.20;99.90
29813;DHT22;16707;48.106;11.548;2022-12-10T10:26:53;2.30;99.90
29813;DHT22;16707;48.106;11.548;2022-12-10T10:29:25;2.30;99.90
29813;DHT22;16707;48.106;11.548;2022-12-10T10:32:12;2.20;99.90
29813;DHT22;16707;48.106;11.548;2022-12-10T10:34:45;2.30;99.90
29813;DHT22;16707;48.106;11.548;2022-12-10T10:37:20;2.40;99.90
29813;DHT22;16707;48.106;11.548;2022-12-10T10:39:49;2.30;99.90
29813;DHT22;16707;48.106;11.548;2022-12-10T10:42:27;2.30;99.90
29813;DHT22;16707;48.106;11.548;2022-12-10T10:44:58;2.30;99.90
29813;DHT22;16707;48.106;11.548;2022-12-10T10:47:27;2.20;99.90
29813;DHT22;16707;48.106;11.548;2022-12-10T10:50:01;2.30;99.90
29813;DHT22;16707;48.106;11.548;2022-12-10T10:52:37;2.20;99.90
29813;DHT22;16707;48.106;11.548;2022-12-10T10:55:08;2.20;99.90
29813;DHT22;16707;48.106;11.548;2022-12-10T10:58:03;2.10;99.90
29813;DHT22;16707;48.106;11.548;2022-12-10T11:00:30;2.30;99.90
29813;DHT22;16707;48.106;11.548;2022-12-10T11:02:58;2.40;99.90
29813;DHT22;16707;48.106;11.548;2022-12-10T11:05:29;2.40;99.90
29813;DHT22;16707;48.106;11.548;2022-12-10T11:07:59;2.50;99.90
29813;DHT22;16707;48.106;11.548;2022-12-10T11:10:27;2.50;99.90
29813;DHT22;16707;48.106;11.548;2022-12-10T11:12:56;2.50;99.90
29813;DHT22;16707;48.106;11.548;2022-12-10T11:15:33;2.70;99.90
29813;DHT22;16707;48.106;11.548;2022-12-10T11:18:18;2.70;99.90
29813;DHT22;16707;48.106;11.548;2022-12-10T11:20:57;2.60;99.90
29813;DHT22;16707;48.106;11.548;2022-12-10T11:23:28;2.50;99.90
29813;DHT22;16707;48.106;11.548;2022-12-10T11:26:08;2.70;99.90
29813;DHT22;16707;48.106;11.548;2022-12-10T11:28:44;2.60;99.90
29813;DHT22;16707;48.106;11.548;2022-12-10T11:31:28;2.50;99.90
29813;DHT22;16707;48.106;11.548;2022-12-10T11:34:07;2.50;99.90
29813;DHT22;16707;48.106;11.548;2022-12-10T11:36:40;2.40;99.90
29813;DHT22;16707;48.106;11.548;2022-12-10T11:39:21;2.60;99.90
29813;DHT22;16707;48.106;11.548;2022-12-10T11:42:00;2.40;99.90
29813;DHT22;16707;48.106;11.548;2022-12-10T11:44:38;2.20;99.90
29813;DHT22;16707;48.106;11.548;2022-12-10T11:47:30;2.30;99.90
29813;DHT22;16707;48.106;11.548;2022-12-10T11:50:15;2.40;99.90
29813;DHT22;16707;48.106;11.548;2022-12-10T11:52:59;2.70;99.90
29813;DHT22;16707;48.106;11.548;2022-12-10T11:55:33;2.70;99.90
29813;DHT22;16707;48.106;11.548;2022-12-10T11:58:19;2.50;99.90
29813;DHT22;16707;48.106;11.548;2022-12-10T12:00:59;2.60;99.90
29813;DHT22;16707;48.106;11.548;2022-12-10T12:03:38;2.70;99.90
29813;DHT22;16707;48.106;11.548;2022-12-10T12:06:34;2.50;99.90
29813;DHT22;16707;48.106;11.548;2022-12-10T12:09:09;2.70;99.90
29813;DHT22;16707;48.106;11.548;2022-12-10T12:11:53;2.40;99.90
29813;DHT22;16707;48.106;11.548;2022-12-10T12:14:25;2.30;99.90
29813;DHT22;16707;48.106;11.548;2022-12-10T12:17:01;2.40;99.90
29813;DHT22;16707;48.106;11.548;2022-12-10T12:19:34;2.30;99.90
29813;DHT22;16707;48.106;11.548;2022-12-10T12:22:10;2.20;99.90
29813;DHT22;16707;48.106;11.548;2022-12-10T12:24:41;1.90;99.90
29813;DHT22;16707;48.106;11.548;2022-12-10T12:27:18;1.80;99.90
29813;DHT22;16707;48.106;11.548;2022-12-10T12:30:02;1.80;99.90
29813;DHT22;16707;48.106;11.548;2022-12-10T12:32:35;1.80;99.90
29813;DHT22;16707;48.106;11.548;2022-12-10T12:35:12;1.80;99.90
29813;DHT22;16707;48.106;11.548;2022-12-10T12:37:48;1.70;99.90
29813;DHT22;16707;48.106;11.548;2022-12-10T12:40:28;1.70;99.90
29813;DHT22;16707;48.106;11.548;2022-12-10T12:43:01;1.60;99.90
29813;DHT22;16707;48.106;11.548;2022-12-10T12:45:36;1.50;99.90
29813;DHT22;16707;48.106;11.548;2022-12-10T12:48:14;1.40;99.90
29813;DHT22;16707;48.106;11.548;2022-12-10T12:50:47;1.50;99.90
29813;DHT22;16707;48.106;11.548;2022-12-10T12:53:20;1.60;99.90
29813;DHT22;16707;48.106;11.548;2022-12-10T12:55:55;1.80;99.90
29813;DHT22;16707;48.106;11.548;2022-12-10T12:58:31;1.70;99.90
29813;DHT22;16707;48.106;11.548;2022-12-10T13:01:18;1.60;99.90
29813;DHT22;16707;48.106;11.548;2022-12-10T13:03:48;1.60;99.90
29813;DHT22;16707;48.106;11.548;2022-12-10T13:06:21;1.70;99.90
29813;DHT22;16707;48.106;11.548;2022-12-10T13:08:52;1.70;99.90
29813;DHT22;16707;48.106;11.548;2022-12-10T13:11:29;1.70;99.90
29813;DHT22;16707;48.106;11.548;2022-12-10T13:14:31;1.70;99.90
29813;DHT22;16707;48.106;11.548;2022-12-10T13:17:08;1.50;99.90
29813;DHT22;16707;48.106;11.548;2022-12-10T13:19:35;1.70;99.90
29813;DHT22;16707;48.106;11.548;2022-12-10T13:22:08;1.80;99.90
29813;DHT22;16707;48.106;11.548;2022-12-10T13:25:15;1.60;99.90
29813;DHT22;16707;48.106;11.548;2022-12-10T13:27:54;1.70;99.90
29813;DHT22;16707;48.106;11.548;2022-12-10T13:30:33;1.60;99.90
29813;DHT22;16707;48.106;11.548;2022-12-10T13:33:17;1.70;99.90
29813;DHT22;16707;48.106;11.548;2022-12-10T13:35:58;1.80;99.90
29813;DHT22;16707;48.106;11.548;2022-12-10T13:38:30;1.70;99.90
29813;DHT22;16707;48.106;11.548;2022-12-10T13:41:06;1.60;99.90
29813;DHT22;16707;48.106;11.548;2022-12-10T13:43:56;1.50;99.90
29813;DHT22;16707;48.106;11.548;2022-12-10T13:46:54;1.60;99.90
29813;DHT22;16707;48.106;11.548;2022-12-10T13:49:24;1.70;99.90
29813;DHT22;16707;48.106;11.548;2022-12-10T13:52:00;1.70;99.90
29813;DHT22;16707;48.106;11.548;2022-12-10T13:54:44;1.70;99.90
29813;DHT22;16707;48.106;11.548;2022-12-10T13:57:41;1.70;99.90
29813;DHT22;16707;48.106;11.548;2022-12-10T14:00:14;1.70;99.90
29813;DHT22;16707;48.106;11.548;2022-12-10T14:03:03;1.90;99.90
29813;DHT22;16707;48.106;11.548;2022-12-10T14:05:50;1.90;99.90
29813;DHT22;16707;48.106;11.548;2022-12-10T14:08:26;1.80;99.90
29813;DHT22;16707;48.106;11.548;2022-12-10T14:10:56;1.70;99.90
29813;DHT22;16707;48.106;11.548;2022-12-10T14:13:30;1.50;99.90
29813;DHT22;16707;48.106;11.548;2022-12-10T14:16:02;1.60;99.90
29813;DHT22;16707;48.106;11.548;2022-12-10T14:18:31;1.70;99.90
29813;DHT22;16707;48.106;11.548;2022-12-10T14:21:03;1.60;99.90
29813;DHT22;16707;48.106;11.548;2022-12-10T14:23:35;1.40;99.90
29813;DHT22;16707;48.106;11.548;2022-12-10T14:26:12;1.30;99.90
29813;DHT22;16707;48.106;11.548;2022-12-10T14:28:41;1.20;99.90
29813;DHT22;16707;48.106;11.548;2022-12-10T14:31:14;1.20;99.90
29813;DHT22;16707;48.106;11.548;2022-12-10T14:33:43;1.20;99.90
29813;DHT22;16707;48.106;11.548;2022-12-10T14:36:17;1.30;99.90
29813;DHT22;16707;48.106;11.548;2022-12-10T14:38:49;1.30;99.90
29813;DHT22;16707;48.106;11.548;2022-12-10T14:41:21;1.40;99.90
29813;DHT22;16707;48.106;11.548;2022-12-10T14:43:49;1.30;99.90
29813;DHT22;16707;48.106;11.548;2022-12-10T14:46:18;1.50;99.90
29813;DHT22;16707;48.106;11.548;2022-12-10T14:48:48;1.50;99.90
29813;DHT22;16707;48.106;11.548;2022-12-10T14:51:18;1.30;99.90
29813;DHT22;16707;48.106;11.548;2022-12-10T14:53:46;1.10;99.90
29813;DHT22;16707;48.106;11.548;2022-12-10T14:56:20;1.20;99.90
29813;DHT22;16707;48.106;11.548;2022-12-10T14:58:59;1.20;99.90
29813;DHT22;16707;48.106;11.548;2022-12-10T15:01:29;1.10;99.90
29813;DHT22;16707;48.106;11.548;2022-12-10T15:03:59;1.00;99.90
29813;DHT22;16707;48.106;11.548;2022-12-10T15:06:27;1.10;99.90
29813;DHT22;16707;48.106;11.548;2022-12-10T15:08:57;1.20;99.90
29813;DHT22;16707;48.106;11.548;2022-12-10T15:11:27;1.20;99.90
29813;DHT22;16707;48.106;11.548;2022-12-10T15:13:57;1.20;99.90
29813;DHT22;16707;48.106;11.548;2022-12-10T15:16:30;1.20;99.90
29813;DHT22;16707;48.106;11.548;2022-12-10T15:19:23;1.20;99.90
29813;DHT22;16707;48.106;11.548;2022-12-10T15:21:52;1.30;99.90
29813;DHT22;16707;48.106;11.548;2022-12-10T15:24:24;1.40;99.90
29813;DHT22;16707;48.106;11.548;2022-12-10T15:26:59;1.30;99.90
29813;DHT22;16707;48.106;11.548;2022-12-10T15:29:34;1.30;99.90
29813;DHT22;16707;48.106;11.548;2022-12-10T15:32:09;1.40;99.90
29813;DHT22;16707;48.106;11.548;2022-12-10T15:34:41;1.40;99.90
29813;DHT22;16707;48.106;11.548;2022-12-10T15:37:18;1.10;99.90
29813;DHT22;16707;48.106;11.548;2022-12-10T15:39:49;1.10;99.90
29813;DHT22;16707;48.106;11.548;2022-12-10T15:42:42;1.20;99.90
29813;DHT22;16707;48.106;11.548;2022-12-10T15:45:37;1.10;99.90
29813;DHT22;16707;48.106;11.548;2022-12-10T15:48:08;1.20;99.90
29813;DHT22;16707;48.106;11.548;2022-12-10T15:50:37;1.20;99.90
29813;DHT22;16707;48.106;11.548;2022-12-10T15:53:04;1.20;99.90
29813;DHT22;16707;48.106;11.548;2022-12-10T15:55:31;1.20;99.90
29813;DHT22;16707;48.106;11.548;2022-12-10T15:57:59;1.20;99.90
29813;DHT22;16707;48.106;11.548;2022-12-10T16:00:27;1.10;99.90
29813;DHT22;16707;48.106;11.548;2022-12-10T16:02:55;1.20;99.90
29813;DHT22;16707;48.106;11.548;2022-12-10T16:05:27;1.10;99.90
29813;DHT22;16707;48.106;11.548;2022-12-10T16:07:58;1.20;99.90
29813;DHT22;16707;48.106;11.548;2022-12-10T16:10:26;1.10;99.90